Time;durP1;ratioP1;P1;durP2;ratioP2;P2;SDS_P1;SDS_P2;PMS_P1;PMS_P2;Temp;Humidity;BMP_temperature;BMP_pressure;BME280_temperature;BME280_humidity;BME280_pressure;Samples;Min_cycle;Max_cycle;Signal;HPM_P1;HPM_P2
2023/04/09 00:02:13;;;;;;;15.77;13.63;;;;;;;;;;5028805;28;20046;-79
2023/04/09 00:04:40;;;;;;;14.52;12.30;;;;;;;;;;4996050;28;20046;-78
2023/04/09 00:07:07;;;;;;;17.52;13.68;;;;;;;;;;5012461;28;20058;-78
2023/04/09 00:09:33;;;;;;;16.35;13.23;;;;;;;;;;5028758;28;20049;-78
2023/04/09 00:12:00;;;;;;;14.20;12.63;;;;;;;;;;4996105;28;20053;-78
2023/04/09 00:14:27;;;;;;;16.05;12.52;;;;;;;;;;4996019;28;20069;-78
2023/04/09 00:16:54;;;;;;;14.95;13.35;;;;;;;;;;4996022;28;20518;-79
2023/04/09 00:19:21;;;;;;;14.40;12.43;;;;;;;;;;4996192;28;20053;-78
2023/04/09 00:21:48;;;;;;;15.52;12.68;;;;;;;;;;5011827;28;20042;-79
2023/04/09 00:24:15;;;;;;;16.00;13.27;;;;;;;;;;4995131;28;20494;-78
2023/04/09 00:26:41;;;;;;;14.77;12.32;;;;;;;;;;4996103;28;20112;-78
2023/04/09 00:29:08;;;;;;;14.27;12.55;;;;;;;;;;4996232;28;20137;-79
2023/04/09 00:31:35;;;;;;;15.65;12.68;;;;;;;;;;5012232;28;20574;-78
2023/04/09 00:34:01;;;;;;;15.05;11.93;;;;;;;;;;4996216;28;20560;-79
2023/04/09 00:36:28;;;;;;;13.50;11.07;;;;;;;;;;4996072;28;20055;-79
2023/04/09 00:38:55;;;;;;;14.73;12.18;;;;;;;;;;5011808;28;20052;-79
2023/04/09 00:41:22;;;;;;;16.20;12.55;;;;;;;;;;4995493;28;20046;-79
2023/04/09 00:43:49;;;;;;;16.58;11.90;;;;;;;;;;4995533;28;20068;-79
2023/04/09 00:46:16;;;;;;;13.93;12.43;;;;;;;;;;5011666;28;20129;-79
2023/04/09 00:48:43;;;;;;;12.48;11.18;;;;;;;;;;5027907;28;20481;-79
2023/04/09 00:51:10;;;;;;;14.02;11.38;;;;;;;;;;4994938;28;20046;-79
2023/04/09 00:53:36;;;;;;;14.57;12.20;;;;;;;;;;4995596;28;20473;-79
2023/04/09 00:56:04;;;;;;;13.68;11.02;;;;;;;;;;4995278;28;20149;-79
2023/04/09 00:58:30;;;;;;;13.32;11.80;;;;;;;;;;5027856;28;20057;-79
2023/04/09 01:00:57;;;;;;;14.02;12.00;;;;;;;;;;5027607;28;20060;-79
2023/04/09 01:03:24;;;;;;;15.15;12.30;;;;;;;;;;5010825;28;20413;-78
2023/04/09 01:06:00;;;;;;;15.40;12.48;;;;;;;;;;5028232;28;20123;-79
2023/04/09 01:08:45;;;;;;;15.15;12.40;;;;;;;;;;5027374;28;20054;-79
2023/04/09 01:11:24;;;;;;;16.98;12.93;;;;;;;;;;5027320;28;20057;-78
2023/04/09 01:13:56;;;;;;;17.73;12.73;;;;;;;;;;5011029;28;20049;-79
2023/04/09 01:16:23;;;;;;;16.83;13.18;;;;;;;;;;5027626;28;20054;-79
2023/04/09 01:19:01;;;;;;;14.90;12.15;;;;;;;;;;5010939;28;20085;-79
2023/04/09 01:21:31;;;;;;;15.00;11.43;;;;;;;;;;5010827;28;20136;-79
2023/04/09 01:24:33;;;;;;;16.92;13.20;;;;;;;;;;5027366;28;20054;-79
2023/04/09 01:27:06;;;;;;;14.85;12.70;;;;;;;;;;4989587;28;20137;-79
2023/04/09 01:29:38;;;;;;;;;;;;;;;;;;5011181;28;20508;-78
2023/04/09 01:32:05;;;;;;;16.20;12.50;;;;;;;;;;5010451;28;19921;-79
2023/04/09 01:34:32;;;;;;;16.08;12.52;;;;;;;;;;4994274;28;20498;-79
2023/04/09 01:37:00;;;;;;;15.10;12.48;;;;;;;;;;5010794;28;20060;-78
2023/04/09 01:39:27;;;;;;;16.00;12.90;;;;;;;;;;5010857;28;20052;-79
2023/04/09 01:41:53;;;;;;;14.88;13.05;;;;;;;;;;5010551;28;20053;-78
2023/04/09 01:44:20;;;;;;;16.75;13.63;;;;;;;;;;4994630;28;20049;-79
2023/04/09 01:46:47;;;;;;;16.10;12.23;;;;;;;;;;5027030;28;20063;-78
2023/04/09 01:49:14;;;;;;;15.93;13.18;;;;;;;;;;5010557;28;20065;-80
2023/04/09 01:51:41;;;;;;;13.63;12.20;;;;;;;;;;4994123;28;20054;-79
2023/04/09 01:54:08;;;;;;;15.32;12.23;;;;;;;;;;5010506;28;20126;-80
2023/04/09 01:56:45;;;;;;;14.00;12.20;;;;;;;;;;4994440;28;20141;-78
2023/04/09 01:59:12;;;;;;;15.07;12.55;;;;;;;;;;5010556;28;20085;-80
2023/04/09 02:02:09;;;;;;;14.25;12.63;;;;;;;;;;4994155;28;20053;-79
2023/04/09 02:04:39;;;;;;;15.93;12.02;;;;;;;;;;5006116;28;20057;-79
2023/04/09 02:07:52;;;;;;;16.30;12.35;;;;;;;;;;5010697;28;20078;-79
2023/04/09 02:10:19;;;;;;;17.10;12.60;;;;;;;;;;4993805;28;20625;-79
2023/04/09 02:12:49;;;;;;;15.52;12.77;;;;;;;;;;4994224;28;20046;-77
2023/04/09 02:15:15;;;;;;;16.15;12.55;;;;;;;;;;5010478;28;20046;-78
2023/04/09 02:17:42;;;;;;;14.38;12.10;;;;;;;;;;5010320;28;20461;-78
2023/04/09 02:20:10;;;;;;;15.07;12.40;;;;;;;;;;4993975;28;20060;-79
2023/04/09 02:22:38;;;;;;;15.10;11.73;;;;;;;;;;5010076;28;20573;-79
2023/04/09 02:25:05;;;;;;;15.80;12.23;;;;;;;;;;4994202;28;20076;-78
2023/04/09 02:27:32;;;;;;;15.98;12.38;;;;;;;;;;4994146;28;20045;-79
2023/04/09 02:29:59;;;;;;;17.38;13.13;;;;;;;;;;5009995;28;20046;-79
2023/04/09 02:32:25;;;;;;;18.42;13.30;;;;;;;;;;5010084;28;20046;-78
2023/04/09 02:34:52;;;;;;;15.52;12.40;;;;;;;;;;4996141;28;20056;-79
2023/04/09 02:37:19;;;;;;;16.27;13.23;;;;;;;;;;5010293;28;20077;-79
2023/04/09 02:39:46;;;;;;;15.88;11.90;;;;;;;;;;4993775;28;20072;-79
2023/04/09 02:42:12;;;;;;;16.00;13.18;;;;;;;;;;5010146;28;20050;-78
2023/04/09 02:44:39;;;;;;;17.27;13.20;;;;;;;;;;4994002;28;20060;-79
2023/04/09 02:47:06;;;;;;;15.48;12.60;;;;;;;;;;4995984;28;20060;-78
2023/04/09 02:49:32;;;;;;;15.65;12.88;;;;;;;;;;4997806;28;20059;-78
2023/04/09 02:51:59;;;;;;;14.00;11.85;;;;;;;;;;5013637;28;20046;-79
2023/04/09 02:54:26;;;;;;;16.92;14.38;;;;;;;;;;4997422;28;20501;-79
2023/04/09 02:56:52;;;;;;;15.93;13.00;;;;;;;;;;5031843;28;20081;-78
2023/04/09 02:59:19;;;;;;;14.73;11.30;;;;;;;;;;5015010;28;20080;-79
2023/04/09 03:01:46;;;;;;;17.02;13.10;;;;;;;;;;5013373;28;20046;-79
2023/04/09 03:04:13;;;;;;;17.20;13.25;;;;;;;;;;5013364;28;20096;-78
2023/04/09 03:06:40;;;;;;;16.02;13.10;;;;;;;;;;5013832;28;20128;-79
2023/04/09 03:09:06;;;;;;;18.38;13.95;;;;;;;;;;4997450;28;20181;-78
2023/04/09 03:11:33;;;;;;;16.67;14.10;;;;;;;;;;5013355;28;20414;-79
2023/04/09 03:14:00;;;;;;;17.38;14.27;;;;;;;;;;5013377;28;20049;-79
2023/04/09 03:16:27;;;;;;;16.67;13.93;;;;;;;;;;4997391;28;20058;-78
2023/04/09 03:18:53;;;;;;;15.73;14.00;;;;;;;;;;5029782;28;20104;-78
2023/04/09 03:21:20;;;;;;;15.43;12.95;;;;;;;;;;4996898;28;20057;-79
2023/04/09 03:23:47;;;;;;;14.60;13.02;;;;;;;;;;5013447;28;20054;-79
2023/04/09 03:26:13;;;;;;;18.13;13.40;;;;;;;;;;5013498;28;20434;-78
2023/04/09 03:28:40;;;;;;;15.05;12.48;;;;;;;;;;5013579;28;20061;-78
2023/04/09 03:31:07;;;;;;;16.52;12.20;;;;;;;;;;4997496;28;20057;-78
2023/04/09 03:33:33;;;;;;;13.95;12.50;;;;;;;;;;5000953;28;20050;-79
2023/04/09 03:36:00;;;;;;;15.15;12.02;;;;;;;;;;5016991;28;20038;-80
2023/04/09 03:38:27;;;;;;;14.75;12.55;;;;;;;;;;5020373;28;20056;-79
2023/04/09 03:40:54;;;;;;;14.30;12.10;;;;;;;;;;5018061;28;20057;-78
2023/04/09 03:43:21;;;;;;;14.85;12.82;;;;;;;;;;5032944;28;20046;-78
2023/04/09 03:45:48;;;;;;;12.43;11.05;;;;;;;;;;5012781;28;20050;-79
2023/04/09 03:48:15;;;;;;;15.18;12.73;;;;;;;;;;4996163;28;20045;-79
2023/04/09 03:50:41;;;;;;;17.20;12.98;;;;;;;;;;5012645;28;20058;-78
2023/04/09 03:53:08;;;;;;;14.35;12.65;;;;;;;;;;4996539;28;20054;-79
2023/04/09 03:55:36;;;;;;;14.30;12.10;;;;;;;;;;4996410;28;20056;-79
2023/04/09 03:58:03;;;;;;;16.08;13.02;;;;;;;;;;5027688;28;20050;-79
2023/04/09 04:00:29;;;;;;;14.32;12.68;;;;;;;;;;5012304;28;20165;-78
2023/04/09 04:02:56;;;;;;;15.65;12.80;;;;;;;;;;4996057;28;20077;-78
2023/04/09 04:05:24;;;;;;;16.92;13.77;;;;;;;;;;4996466;28;20050;-79
2023/04/09 04:07:51;;;;;;;19.02;15.75;;;;;;;;;;5012654;28;20528;-79
2023/04/09 04:10:18;;;;;;;19.45;16.05;;;;;;;;;;5012229;28;20076;-78
2023/04/09 04:12:45;;;;;;;17.27;15.27;;;;;;;;;;5028537;28;20487;-79
2023/04/09 04:15:12;;;;;;;17.70;15.23;;;;;;;;;;5012210;28;20145;-78
2023/04/09 04:17:39;;;;;;;16.30;13.45;;;;;;;;;;5012382;28;20057;-78
2023/04/09 04:20:06;;;;;;;15.10;13.25;;;;;;;;;;4995873;28;20045;-79
2023/04/09 04:22:34;;;;;;;17.60;12.85;;;;;;;;;;5012128;28;20067;-78
2023/04/09 04:25:04;;;;;;;14.98;12.88;;;;;;;;;;5028593;28;20516;-78
2023/04/09 04:27:31;;;;;;;17.67;13.00;;;;;;;;;;4995819;28;20057;-80
2023/04/09 04:29:58;;;;;;;16.77;12.07;;;;;;;;;;5011932;28;20054;-78
2023/04/09 04:32:26;;;;;;;15.98;12.88;;;;;;;;;;4995532;28;20137;-78
2023/04/09 04:34:53;;;;;;;13.15;11.60;;;;;;;;;;4996110;28;20050;-78
2023/04/09 04:37:20;;;;;;;16.10;11.88;;;;;;;;;;4995873;28;20497;-79
2023/04/09 04:39:46;;;;;;;17.45;13.10;;;;;;;;;;5028408;28;20057;-79
2023/04/09 04:42:13;;;;;;;15.93;12.93;;;;;;;;;;5012015;28;20050;-78
2023/04/09 04:44:40;;;;;;;14.18;11.50;;;;;;;;;;4995588;28;20057;-79
2023/04/09 04:47:06;;;;;;;13.23;11.63;;;;;;;;;;4995755;28;20073;-78
2023/04/09 04:49:33;;;;;;;14.68;12.35;;;;;;;;;;4995583;28;20493;-78
2023/04/09 04:52:00;;;;;;;14.60;12.48;;;;;;;;;;4995391;28;20065;-78
2023/04/09 04:54:26;;;;;;;12.68;11.35;;;;;;;;;;4995647;28;20524;-78
2023/04/09 04:56:53;;;;;;;13.75;12.00;;;;;;;;;;5011372;28;20056;-79
2023/04/09 04:59:20;;;;;;;15.52;12.93;;;;;;;;;;5011799;28;20057;-78
2023/04/09 05:01:46;;;;;;;16.67;12.13;;;;;;;;;;4995232;28;20053;-78
2023/04/09 05:04:13;;;;;;;15.57;12.68;;;;;;;;;;4995090;28;20056;-79
2023/04/09 05:06:40;;;;;;;16.17;13.07;;;;;;;;;;5011623;28;20120;-78
2023/04/09 05:09:07;;;;;;;16.90;13.73;;;;;;;;;;4994984;28;20057;-79
2023/04/09 05:11:33;;;;;;;16.95;12.25;;;;;;;;;;4998115;28;20050;-81
2023/04/09 05:14:00;;;;;;;17.30;12.63;;;;;;;;;;5035743;23;20049;-76
2023/04/09 05:16:27;;;;;;;18.63;14.10;;;;;;;;;;5027353;28;20132;-76
2023/04/09 05:18:53;;;;;;;17.55;13.00;;;;;;;;;;5027398;28;20141;-75
2023/04/09 05:21:20;;;;;;;15.52;13.50;;;;;;;;;;5010858;28;20054;-76
2023/04/09 05:23:47;;;;;;;15.65;13.23;;;;;;;;;;5027370;28;20030;-75
2023/04/09 05:26:14;;;;;;;14.48;12.48;;;;;;;;;;5170512;23;20054;-78
2023/04/09 05:28:41;;;;;;;15.27;11.65;;;;;;;;;;5028364;28;20433;-79
2023/04/09 05:31:11;;;;;;;13.43;11.98;;;;;;;;;;4994442;28;20058;-78
2023/04/09 05:33:39;;;;;;;14.75;12.20;;;;;;;;;;5011832;28;20046;-80
2023/04/09 05:36:06;;;;;;;14.35;11.60;;;;;;;;;;4975123;28;20058;-78
2023/04/09 05:38:33;;;;;;;13.40;11.35;;;;;;;;;;4991015;28;20050;-78
2023/04/09 05:44:47;;;;;;;14.05;11.02;;;;;;;;;;4992216;28;20103;-78
2023/04/09 05:47:14;;;;;;;13.23;11.35;;;;;;;;;;4991017;28;20050;-79
2023/04/09 05:49:41;;;;;;;12.00;10.68;;;;;;;;;;4991163;28;20724;-79
2023/04/09 05:52:07;;;;;;;12.95;10.52;;;;;;;;;;4990332;28;20541;-79
2023/04/09 05:54:34;;;;;;;13.15;10.73;;;;;;;;;;4991011;28;20503;-79
2023/04/09 05:57:01;;;;;;;12.90;10.80;;;;;;;;;;4974940;28;20054;-79
2023/04/09 05:59:28;;;;;;;14.20;10.95;;;;;;;;;;4975032;28;20050;-79
2023/04/09 06:01:57;;;;;;;12.45;9.98;;;;;;;;;;5010165;28;20042;-80
2023/04/09 06:04:26;;;;;;;12.52;10.45;;;;;;;;;;4992312;28;20048;-77
2023/04/09 06:06:54;;;;;;;11.40;10.13;;;;;;;;;;4975289;28;20137;-78
2023/04/09 06:09:21;;;;;;;11.57;9.60;;;;;;;;;;4991151;28;20073;-78
2023/04/09 06:11:47;;;;;;;12.18;9.85;;;;;;;;;;4990099;28;20054;-77
2023/04/09 06:14:16;;;;;;;11.85;9.68;;;;;;;;;;4990769;28;20061;-78
2023/04/09 06:16:43;;;;;;;11.10;9.10;;;;;;;;;;4991055;28;20395;-78
2023/04/09 06:19:11;;;;;;;11.27;9.25;;;;;;;;;;4990687;28;20061;-77
2023/04/09 06:21:39;;;;;;;12.95;10.88;;;;;;;;;;4992061;28;20054;-77
2023/04/09 06:24:06;;;;;;;10.82;8.82;;;;;;;;;;4978755;28;20073;-79
2023/04/09 06:26:33;;;;;;;11.85;9.77;;;;;;;;;;4994665;28;20047;-78
2023/04/09 06:28:59;;;;;;;13.10;9.70;;;;;;;;;;4994772;28;20525;-77
2023/04/09 06:31:26;;;;;;;11.27;9.23;;;;;;;;;;4994261;28;20064;-79
2023/04/09 06:33:53;;;;;;;13.38;9.93;;;;;;;;;;4994689;28;20076;-77
2023/04/09 06:36:20;;;;;;;12.30;9.73;;;;;;;;;;4994528;28;20050;-78
2023/04/09 06:38:47;;;;;;;11.45;9.38;;;;;;;;;;4978335;28;20422;-78
2023/04/09 06:41:14;;;;;;;11.45;9.57;;;;;;;;;;4994021;28;20054;-78
2023/04/09 06:43:41;;;;;;;12.05;9.70;;;;;;;;;;4994313;28;20058;-78
2023/04/09 06:46:08;;;;;;;11.32;9.20;;;;;;;;;;4994200;28;20061;-77
2023/04/09 06:48:34;;;;;;;13.27;10.05;;;;;;;;;;4994208;28;20510;-78
2023/04/09 06:51:01;;;;;;;12.90;9.68;;;;;;;;;;4977894;28;20058;-78
2023/04/09 06:53:28;;;;;;;11.35;9.45;;;;;;;;;;4993827;28;20053;-77
2023/04/09 06:55:55;;;;;;;12.73;9.68;;;;;;;;;;4978112;28;20507;-78
2023/04/09 06:58:22;;;;;;;12.25;9.40;;;;;;;;;;4994046;28;20078;-77
2023/04/09 07:00:49;;;;;;;12.38;9.45;;;;;;;;;;4993891;28;20050;-77
2023/04/09 07:03:16;;;;;;;11.38;9.40;;;;;;;;;;4993822;28;20494;-77
2023/04/09 07:05:43;;;;;;;11.85;9.60;;;;;;;;;;4977966;28;20050;-77
2023/04/09 07:08:10;;;;;;;12.57;10.10;;;;;;;;;;4993839;28;20050;-77
2023/04/09 07:10:37;;;;;;;13.38;9.77;;;;;;;;;;4993976;28;20426;-79
2023/04/09 07:13:04;;;;;;;10.48;8.82;;;;;;;;;;4993920;28;20046;-77
2023/04/09 07:15:30;;;;;;;12.80;9.13;;;;;;;;;;4993869;28;20270;-77
2023/04/09 07:17:57;;;;;;;10.65;8.90;;;;;;;;;;4993503;28;20057;-77
2023/04/09 07:20:24;;;;;;;13.35;9.20;;;;;;;;;;4993598;28;20058;-77
2023/04/09 07:22:51;;;;;;;12.65;10.05;;;;;;;;;;4993609;28;20050;-77
2023/04/09 07:25:18;;;;;;;10.07;8.65;;;;;;;;;;4993500;28;20056;-77
2023/04/09 07:27:44;;;;;;;11.32;9.48;;;;;;;;;;4993428;28;20046;-77
2023/04/09 07:30:11;;;;;;;12.77;9.43;;;;;;;;;;4993069;28;20069;-77
2023/04/09 07:32:38;;;;;;;11.30;9.30;;;;;;;;;;4992961;28;20046;-77
2023/04/09 07:35:06;;;;;;;11.05;8.88;;;;;;;;;;4993380;28;20641;-77
2023/04/09 07:37:33;;;;;;;10.60;9.20;;;;;;;;;;4977206;28;20142;-77
2023/04/09 07:40:01;;;;;;;12.63;9.55;;;;;;;;;;4993165;28;20541;-77
2023/04/09 07:42:29;;;;;;;9.70;8.05;;;;;;;;;;4993465;28;20049;-77
2023/04/09 07:44:56;;;;;;;11.55;8.80;;;;;;;;;;4977231;28;20166;-78
2023/04/09 07:47:22;;;;;;;10.55;8.63;;;;;;;;;;4993271;28;20058;-77
2023/04/09 07:49:50;;;;;;;11.05;8.70;;;;;;;;;;4992963;28;20100;-77
2023/04/09 07:52:17;;;;;;;11.00;9.18;;;;;;;;;;4993054;28;20050;-77
2023/04/09 07:54:43;;;;;;;10.85;8.48;;;;;;;;;;4992963;28;20112;-77
2023/04/09 07:57:10;;;;;;;9.35;7.53;;;;;;;;;;4993017;28;20074;-79
2023/04/09 07:59:37;;;;;;;9.27;7.50;;;;;;;;;;4976861;28;20426;-77
2023/04/09 08:02:03;;;;;;;8.88;7.13;;;;;;;;;;4992821;28;20062;-78
2023/04/09 08:04:30;;;;;;;6.72;6.10;;;;;;;;;;4992804;28;20130;-77
2023/04/09 08:06:57;;;;;;;7.65;5.75;;;;;;;;;;4993086;28;20073;-77
2023/04/09 08:09:24;;;;;;;6.30;5.32;;;;;;;;;;4992820;28;20046;-77
2023/04/09 08:11:52;;;;;;;6.55;5.85;;;;;;;;;;4992783;28;20054;-77
2023/04/09 08:14:18;;;;;;;8.27;6.15;;;;;;;;;;4992703;28;20047;-78
2023/04/09 08:16:46;;;;;;;6.38;5.68;;;;;;;;;;4992647;28;20050;-77
2023/04/09 08:19:14;;;;;;;7.40;6.07;;;;;;;;;;4992681;28;20061;-78
2023/04/09 08:21:42;;;;;;;7.60;6.35;;;;;;;;;;4992715;28;20426;-78
2023/04/09 08:24:10;;;;;;;8.00;6.70;;;;;;;;;;4976699;28;20466;-79
2023/04/09 08:26:38;;;;;;;8.48;7.20;;;;;;;;;;4976506;28;20082;-78
2023/04/09 08:29:04;;;;;;;8.60;6.97;;;;;;;;;;4992459;28;20477;-77
2023/04/09 08:31:31;;;;;;;10.43;7.18;;;;;;;;;;4992086;28;20054;-77
2023/04/09 08:33:58;;;;;;;8.48;6.82;;;;;;;;;;4991900;28;20068;-77
2023/04/09 08:36:27;;;;;;;7.60;6.80;;;;;;;;;;4992239;28;20057;-77
2023/04/09 08:38:55;;;;;;;7.07;6.38;;;;;;;;;;4992633;28;20133;-77
2023/04/09 08:41:27;;;;;;;8.85;6.95;;;;;;;;;;4991830;28;20054;-78
2023/04/09 08:43:54;;;;;;;8.63;7.55;;;;;;;;;;4991945;28;20046;-77
2023/04/09 08:46:25;;;;;;;7.90;6.53;;;;;;;;;;4976542;28;20657;-77
2023/04/09 08:48:52;;;;;;;7.28;6.18;;;;;;;;;;4991966;28;20058;-78
2023/04/09 08:51:21;;;;;;;5.60;4.97;;;;;;;;;;4991777;28;20051;-78
2023/04/09 08:53:54;;;;;;;6.10;5.43;;;;;;;;;;4975837;28;20046;-78
2023/04/09 08:56:21;;;;;;;6.90;5.78;;;;;;;;;;4992290;28;20057;-78
2023/04/09 08:58:48;;;;;;;6.50;5.72;;;;;;;;;;4993834;28;20085;-79
2023/04/09 09:01:25;;;;;;;7.45;6.20;;;;;;;;;;4976934;28;20058;-78
2023/04/09 09:03:59;;;;;;;6.90;5.47;;;;;;;;;;4976501;28;20185;-78
2023/04/09 09:06:28;;;;;;;7.30;6.10;;;;;;;;;;4992446;28;20068;-79
2023/04/09 09:09:12;;;;;;;5.65;5.05;;;;;;;;;;4976238;28;20058;-78
2023/04/09 09:11:47;;;;;;;6.82;5.97;;;;;;;;;;4975513;28;20056;-79
2023/04/09 09:14:15;;;;;;;6.57;5.47;;;;;;;;;;4991808;28;20434;-78
2023/04/09 09:16:44;;;;;;;6.25;5.35;;;;;;;;;;4992016;28;20081;-79
2023/04/09 09:19:23;;;;;;;6.28;5.07;;;;;;;;;;4975571;28;20503;-78
2023/04/09 09:21:57;;;;;;;5.50;5.00;;;;;;;;;;4992200;28;20057;-78
2023/04/09 09:24:24;;;;;;;6.72;5.35;;;;;;;;;;4975706;28;20046;-78
2023/04/09 09:26:53;;;;;;;5.72;5.07;;;;;;;;;;4991464;28;20137;-79
2023/04/09 09:29:20;;;;;;;6.07;5.40;;;;;;;;;;4975605;28;20085;-77
2023/04/09 09:31:51;;;;;;;6.38;5.18;;;;;;;;;;4991401;28;20058;-77
2023/04/09 09:34:19;;;;;;;5.25;4.75;;;;;;;;;;4991248;28;20061;-78
2023/04/09 09:36:46;;;;;;;6.85;6.15;;;;;;;;;;4975451;28;20056;-78
2023/04/09 09:39:16;;;;;;;6.35;5.60;;;;;;;;;;4991385;28;20457;-77
2023/04/09 09:41:43;;;;;;;5.72;5.13;;;;;;;;;;4991174;28;20578;-77
2023/04/09 09:44:11;;;;;;;6.70;5.85;;;;;;;;;;4991006;28;20057;-77
2023/04/09 09:46:41;;;;;;;5.40;4.90;;;;;;;;;;4974729;28;20050;-77
2023/04/09 09:49:08;;;;;;;6.47;5.78;;;;;;;;;;5006958;28;20058;-77
2023/04/09 09:51:36;;;;;;;6.32;5.72;;;;;;;;;;4974460;28;20057;-77
2023/04/09 09:54:03;;;;;;;5.72;5.20;;;;;;;;;;4990531;28;20422;-77
2023/04/09 09:56:32;;;;;;;6.60;5.88;;;;;;;;;;4990500;28;20054;-77
2023/04/09 09:59:06;;;;;;;7.78;6.57;;;;;;;;;;4990321;28;20050;-77
2023/04/09 10:01:34;;;;;;;6.70;5.82;;;;;;;;;;4990572;28;20061;-78
2023/04/09 10:04:01;;;;;;;7.10;6.40;;;;;;;;;;4974684;28;20072;-78
2023/04/09 10:06:29;;;;;;;7.25;6.55;;;;;;;;;;4990814;28;20579;-77
2023/04/09 10:08:57;;;;;;;4.93;4.43;;;;;;;;;;4974511;28;20060;-78
2023/04/09 10:11:24;;;;;;;5.25;4.22;;;;;;;;;;4974225;28;20054;-78
2023/04/09 10:13:54;;;;;;;5.93;5.22;;;;;;;;;;4990688;28;20104;-77
2023/04/09 10:16:22;;;;;;;6.53;5.72;;;;;;;;;;4974633;28;20422;-77
2023/04/09 10:18:49;;;;;;;6.30;5.70;;;;;;;;;;4990408;28;20054;-77
2023/04/09 10:21:47;;;;;;;5.93;5.32;;;;;;;;;;4990416;28;20498;-78
2023/04/09 10:24:14;;;;;;;6.22;5.63;;;;;;;;;;4974560;28;20057;-77
2023/04/09 10:26:43;;;;;;;6.28;5.60;;;;;;;;;;4974300;28;20185;-78
2023/04/09 10:29:14;;;;;;;5.63;5.03;;;;;;;;;;4974422;28;20121;-77
2023/04/09 10:31:53;;;;;;;6.13;5.25;;;;;;;;;;4974005;28;20060;-78
2023/04/09 10:34:25;;;;;;;5.50;4.80;;;;;;;;;;4974412;28;20475;-79
2023/04/09 10:36:55;;;;;;;6.43;5.25;;;;;;;;;;4974445;28;20153;-78
2023/04/09 10:39:27;;;;;;;6.82;4.80;;;;;;;;;;4974387;28;20057;-79
2023/04/09 10:41:54;;;;;;;5.50;4.88;;;;;;;;;;4990168;28;20078;-79
2023/04/09 10:44:22;;;;;;;5.10;4.53;;;;;;;;;;4974286;28;20057;-78
2023/04/09 10:46:52;;;;;;;5.68;4.53;;;;;;;;;;4990528;28;20149;-78
2023/04/09 10:49:21;;;;;;;4.72;4.18;;;;;;;;;;4974435;28;20050;-78
2023/04/09 10:52:02;;;;;;;4.43;4.03;;;;;;;;;;4990180;28;20050;-78
2023/04/09 10:54:34;;;;;;;4.05;3.45;;;;;;;;;;4974327;28;20410;-78
2023/04/09 10:57:10;;;;;;;3.97;3.53;;;;;;;;;;4990394;28;20065;-77
2023/04/09 10:59:39;;;;;;;4.15;3.75;;;;;;;;;;4990507;28;20508;-78
2023/04/09 11:02:08;;;;;;;4.50;3.70;;;;;;;;;;4974274;28;20062;-78
2023/04/09 11:04:47;;;;;;;4.00;3.70;;;;;;;;;;4974426;28;20053;-78
2023/04/09 11:07:14;;;;;;;3.97;3.65;;;;;;;;;;4990812;28;20097;-77
2023/04/09 11:09:41;;;;;;;3.85;3.45;;;;;;;;;;4993571;28;20073;-78
2023/04/09 11:12:10;;;;;;;4.50;4.10;;;;;;;;;;4993698;28;20054;-78
2023/04/09 11:14:37;;;;;;;3.58;3.28;;;;;;;;;;4977399;28;20046;-78
2023/04/09 11:17:04;;;;;;;5.95;4.22;;;;;;;;;;4993900;28;20054;-78
2023/04/09 11:19:34;;;;;;;3.63;3.33;;;;;;;;;;4994078;28;20069;-78
2023/04/09 11:22:05;;;;;;;4.10;3.70;;;;;;;;;;4977254;28;20054;-78
2023/04/09 11:24:42;;;;;;;4.38;3.97;;;;;;;;;;4994095;28;20047;-78
2023/04/09 11:27:09;;;;;;;4.15;3.53;;;;;;;;;;4993472;28;20050;-79
2023/04/09 11:29:35;;;;;;;4.18;3.78;;;;;;;;;;4993880;28;20054;-78
2023/04/09 11:32:04;;;;;;;4.18;3.88;;;;;;;;;;4993185;28;20083;-78
2023/04/09 11:34:31;;;;;;;3.83;3.42;;;;;;;;;;4993217;28;20053;-79
2023/04/09 11:36:58;;;;;;;4.40;3.28;;;;;;;;;;4977225;28;20054;-78
2023/04/09 11:39:25;;;;;;;3.50;3.20;;;;;;;;;;4993541;28;20046;-78
2023/04/09 11:41:52;;;;;;;4.60;4.20;;;;;;;;;;4993052;28;20050;-78
2023/04/09 11:44:22;;;;;;;4.15;3.75;;;;;;;;;;4993318;28;20077;-77
2023/04/09 11:46:49;;;;;;;4.47;4.07;;;;;;;;;;4993160;28;20495;-78
2023/04/09 11:49:16;;;;;;;3.97;3.58;;;;;;;;;;4993364;28;20093;-78
2023/04/09 11:51:43;;;;;;;4.45;4.03;;;;;;;;;;4976798;28;20398;-78
2023/04/09 11:54:10;;;;;;;4.20;3.80;;;;;;;;;;4977196;28;20411;-78
2023/04/09 11:56:37;;;;;;;3.72;3.42;;;;;;;;;;4976969;28;20066;-78
2023/04/09 11:59:04;;;;;;;3.95;3.30;;;;;;;;;;4992939;28;20522;-79
2023/04/09 12:01:31;;;;;;;3.72;3.17;;;;;;;;;;4993025;28;20422;-78
2023/04/09 12:03:59;;;;;;;3.70;3.38;;;;;;;;;;4976735;28;20398;-78
2023/04/09 12:06:27;;;;;;;3.00;2.70;;;;;;;;;;4977075;28;20058;-78
2023/04/09 12:08:58;;;;;;;3.38;3.08;;;;;;;;;;4992945;28;20085;-78
2023/04/09 12:11:30;;;;;;;3.80;2.88;;;;;;;;;;4992398;28;20137;-78
2023/04/09 12:14:03;;;;;;;2.47;2.28;;;;;;;;;;4992752;28;20057;-78
2023/04/09 12:16:34;;;;;;;4.10;2.90;;;;;;;;;;5008740;28;20138;-78
2023/04/09 12:19:02;;;;;;;3.25;2.78;;;;;;;;;;4992444;28;20054;-78
2023/04/09 12:21:53;;;;;;;3.38;3.08;;;;;;;;;;4992571;28;20054;-78
2023/04/09 12:24:24;;;;;;;6.15;3.00;;;;;;;;;;5008939;28;20065;-78
2023/04/09 12:26:51;;;;;;;3.00;2.70;;;;;;;;;;4976539;28;20054;-78
2023/04/09 12:29:20;;;;;;;3.30;3.00;;;;;;;;;;4992361;28;20058;-79
2023/04/09 12:31:46;;;;;;;3.55;3.25;;;;;;;;;;4992266;28;20050;-78
2023/04/09 12:34:13;;;;;;;3.00;2.80;;;;;;;;;;5008476;28;20170;-78
2023/04/09 12:36:43;;;;;;;3.75;3.45;;;;;;;;;;4992175;28;20088;-78
2023/04/09 12:39:09;;;;;;;4.03;3.20;;;;;;;;;;4992134;28;20050;-78
2023/04/09 12:41:36;;;;;;;3.97;3.55;;;;;;;;;;4991780;28;20069;-79
2023/04/09 12:44:06;;;;;;;3.28;2.97;;;;;;;;;;4992269;28;20061;-78
2023/04/09 12:46:32;;;;;;;3.38;3.08;;;;;;;;;;5008176;28;20062;-78
2023/04/09 12:48:59;;;;;;;3.95;3.40;;;;;;;;;;4992036;28;20058;-79
2023/04/09 12:51:27;;;;;;;3.53;3.22;;;;;;;;;;4991922;28;20061;-78
2023/04/09 12:53:54;;;;;;;3.58;3.05;;;;;;;;;;4991627;28;20418;-79
2023/04/09 12:56:21;;;;;;;3.60;3.30;;;;;;;;;;4991927;28;20050;-79
2023/04/09 12:58:48;;;;;;;3.35;3.05;;;;;;;;;;4991900;28;20060;-79
2023/04/09 13:01:15;;;;;;;3.63;3.17;;;;;;;;;;4991476;28;20058;-80
2023/04/09 13:03:41;;;;;;;3.03;2.72;;;;;;;;;;4992202;28;20049;-78
2023/04/09 13:06:08;;;;;;;3.45;3.15;;;;;;;;;;4992121;28;20078;-78
2023/04/09 13:08:35;;;;;;;3.10;2.80;;;;;;;;;;4992005;28;20533;-79
2023/04/09 13:11:03;;;;;;;2.80;2.60;;;;;;;;;;4991354;28;20050;-78
2023/04/09 13:13:30;;;;;;;3.08;2.78;;;;;;;;;;4991681;28;20055;-78
2023/04/09 13:15:57;;;;;;;3.05;2.78;;;;;;;;;;4992095;28;20384;-78
2023/04/09 13:18:23;;;;;;;3.20;2.90;;;;;;;;;;5007725;28;20057;-78
2023/04/09 13:20:50;;;;;;;4.03;2.97;;;;;;;;;;4991476;28;20054;-78
2023/04/09 13:23:17;;;;;;;3.05;2.72;;;;;;;;;;4991372;28;20402;-78
2023/04/09 13:25:44;;;;;;;2.92;2.72;;;;;;;;;;4991443;28;20388;-79
2023/04/09 13:28:10;;;;;;;2.60;2.40;;;;;;;;;;4991546;28;20054;-78
2023/04/09 13:30:37;;;;;;;2.83;2.63;;;;;;;;;;4991015;28;20058;-78
2023/04/09 13:33:04;;;;;;;2.80;2.60;;;;;;;;;;4991391;28;20112;-79
2023/04/09 13:35:31;;;;;;;3.42;3.13;;;;;;;;;;4991295;28;20043;-79
2023/04/09 13:37:57;;;;;;;3.42;2.92;;;;;;;;;;4991430;28;20499;-79
2023/04/09 13:40:24;;;;;;;3.33;2.70;;;;;;;;;;4990995;28;20083;-78
2023/04/09 13:42:51;;;;;;;3.13;2.83;;;;;;;;;;4991139;28;20065;-78
2023/04/09 13:45:19;;;;;;;3.33;3.03;;;;;;;;;;4991409;28;20046;-79
2023/04/09 13:47:46;;;;;;;3.50;3.20;;;;;;;;;;4990767;28;20054;-78
2023/04/09 13:50:12;;;;;;;2.90;2.70;;;;;;;;;;4990677;28;20054;-78
2023/04/09 13:52:39;;;;;;;3.55;3.10;;;;;;;;;;4991119;28;20058;-77
2023/04/09 13:55:07;;;;;;;3.85;2.83;;;;;;;;;;4991484;28;20515;-78
2023/04/09 13:57:33;;;;;;;3.33;3.03;;;;;;;;;;4975145;28;20075;-77
2023/04/09 14:00:03;;;;;;;3.78;3.45;;;;;;;;;;4990680;28;20112;-78
2023/04/09 14:02:30;;;;;;;2.67;2.47;;;;;;;;;;4990860;28;20109;-77
2023/04/09 14:04:57;;;;;;;3.35;2.90;;;;;;;;;;4974905;28;20050;-78
2023/04/09 14:07:24;;;;;;;3.05;2.75;;;;;;;;;;4991189;28;20073;-77
2023/04/09 14:09:50;;;;;;;3.58;3.28;;;;;;;;;;4992422;28;20054;-78
2023/04/09 14:12:17;;;;;;;3.65;2.92;;;;;;;;;;4991029;28;20050;-77
2023/04/09 14:14:44;;;;;;;3.97;3.15;;;;;;;;;;4991267;28;20050;-77
2023/04/09 14:17:11;;;;;;;3.83;3.42;;;;;;;;;;4991149;28;20050;-78
2023/04/09 14:19:38;;;;;;;3.90;2.85;;;;;;;;;;4990916;28;20062;-77
2023/04/09 14:22:06;;;;;;;4.10;3.10;;;;;;;;;;4991034;28;20422;-79
2023/04/09 14:24:38;;;;;;;3.83;3.42;;;;;;;;;;4991041;28;20409;-79
2023/04/09 14:27:06;;;;;;;3.83;3.42;;;;;;;;;;4990999;28;20050;-77
2023/04/09 14:29:33;;;;;;;4.18;3.35;;;;;;;;;;4974118;28;20093;-78
2023/04/09 14:32:00;;;;;;;3.63;3.33;;;;;;;;;;4990009;28;20065;-77
2023/04/09 14:34:30;;;;;;;4.50;3.25;;;;;;;;;;4990102;28;20047;-78
2023/04/09 14:36:56;;;;;;;3.47;3.13;;;;;;;;;;4989835;28;20058;-77
2023/04/09 14:39:23;;;;;;;4.53;3.00;;;;;;;;;;4989785;28;20565;-78
2023/04/09 14:41:50;;;;;;;5.78;3.67;;;;;;;;;;4989614;28;20054;-78